Hundvaag 1 weather for Jul 2000
Month no. 157
Obs.
Da.
Temp. Dew Point Precip. Wind
Speed
Wind gusts Cloud cover Press. Humidity Wind dir. Sunny OPT
01.07.2000 14,8   5,8     0 1011,6     1  
02.07.2000 17,2   0,1     6 1014,1     1  
03.07.2000 12,9   0,1     0 1013,9     1  
04.07.2000 12,0   0,0     0 1012,7     1  
05.07.2000 12,4   0,0     0 1011,6        
06.07.2000 13,1   0,0     0 1012,3        
07.07.2000 10,0   0,0     0 1014,8     1  
08.07.2000 10,1   0,0     8 1012,9     1  
09.07.2000 13,0   0,0     7 1006,7     1  
10.07.2000 13,5   1,0     0 1002,8        
11.07.2000 13,0   3,0     0 1001,5     1  
12.07.2000 12,2   2,3     0 1006,5     1  
13.07.2000 10,8   0,1     4 1008,9     1  
14.07.2000 10,4   0,0     2 1006,3     1  
15.07.2000 13,0   0,0     10 1009,3     1  
16.07.2000 15,8   0,0     9 1007,5     1  
17.07.2000 11,8   0,0     0 1012,1        
18.07.2000 11,4   0,0     0 1012,7        
19.07.2000 10,6   0,1     1 1012,9     1  
20.07.2000 11,4   0,0     1 1014,8     1  
21.07.2000 10,2   0,0     9 1021,2     1  
22.07.2000 11,9   0,0     10 1019,2     1  
23.07.2000 13,9   0,0     10 1016,3     1  
24.07.2000 14,8   0,0     9 1013,6     1  
25.07.2000 15,1   0,1     8 1011,5        
26.07.2000 16,2   9,5     0 1011,6        
27.07.2000 17,6   9,2     0 1013,3        
28.07.2000 16,7   0,8     0 1013,2     1  
29.07.2000 14,7   0,0     8 1013,6     1  
30.07.2000 15,3   0,0     1 1014,9     1  
31.07.2000 14,7   0,2     1 1017,2     1  
Avrg/Sum 13,2   32,3     3,4 1012,0     23